createdAt,value
2022-10-11T00:03:03.699Z,99.99
2022-10-11T00:13:03.878Z,99.99
2022-10-11T00:23:04.023Z,99.99
2022-10-11T00:33:04.224Z,99.99
2022-10-11T00:43:04.651Z,99.99
2022-10-11T00:53:04.505Z,99.99
2022-10-11T01:03:04.646Z,99.99
2022-10-11T01:13:04.843Z,99.99
2022-10-11T01:23:05.005Z,99.99
2022-10-11T01:33:05.212Z,99.99
2022-10-11T01:43:05.357Z,99.99
2022-10-11T01:53:05.560Z,99.99
2022-10-11T02:03:05.724Z,99.99
2022-10-11T02:13:05.922Z,99.99
2022-10-11T02:23:06.200Z,99.99
2022-10-11T02:33:06.283Z,99.99
2022-10-11T02:43:06.448Z,99.99
2022-10-11T02:53:06.752Z,99.99
2022-10-11T03:03:07.004Z,99.99
2022-10-11T03:13:06.974Z,99.99
2022-10-11T03:23:07.314Z,99.99
2022-10-11T03:33:07.279Z,99.99
2022-10-11T03:43:07.415Z,99.99
2022-10-11T03:53:07.600Z,99.99
2022-10-11T04:03:07.737Z,99.99
2022-10-11T04:13:11.831Z,99.99
2022-10-11T04:23:08.314Z,99.99
2022-10-11T04:33:08.306Z,99.99
2022-10-11T04:43:08.458Z,99.99
2022-10-11T04:53:08.643Z,99.99
2022-10-11T05:03:08.784Z,99.99
2022-10-11T05:13:08.978Z,99.99
2022-10-11T05:23:09.157Z,99.99
2022-10-11T05:33:09.356Z,99.99
2022-10-11T05:43:09.498Z,99.99
2022-10-11T05:53:09.686Z,99.99
2022-10-11T06:03:09.816Z,99.99
2022-10-11T06:13:10.002Z,99.99
2022-10-11T06:23:10.161Z,99.99
2022-10-11T06:33:10.482Z,99.99
2022-10-11T06:43:12.505Z,99.99
2022-10-11T06:53:10.702Z,99.99
2022-10-11T07:03:10.856Z,99.99
2022-10-11T07:13:16.301Z,99.99
2022-10-11T07:23:12.276Z,99.99
2022-10-11T07:33:11.458Z,99.99
2022-10-11T07:43:11.593Z,99.99
2022-10-11T07:53:12.941Z,99.99
2022-10-11T08:03:11.976Z,99.99
2022-10-11T08:13:12.163Z,99.99
2022-10-11T08:23:12.313Z,99.99
2022-10-11T08:33:12.823Z,99.99
2022-10-11T08:43:12.636Z,99.99
2022-10-11T08:53:12.850Z,99.99
2022-10-11T09:03:13.343Z,99.99
2022-10-11T09:13:13.200Z,99.66
2022-10-11T09:23:13.352Z,98.54
2022-10-11T09:33:13.557Z,97.28
2022-10-11T09:43:13.706Z,94.92
2022-10-11T09:53:13.932Z,96.67
2022-10-11T10:03:14.382Z,93.56
2022-10-11T10:13:14.379Z,94.06
2022-10-11T10:23:14.422Z,94.71
2022-10-11T10:33:14.617Z,94.20
2022-10-11T10:43:14.880Z,93.91
2022-10-11T10:53:15.106Z,93.81
2022-10-11T11:03:15.120Z,93.55
2022-10-11T11:13:15.305Z,93.49
2022-10-11T11:23:15.450Z,92.18
2022-10-11T11:33:15.668Z,91.11
2022-10-11T11:43:15.934Z,90.56
2022-10-11T11:53:16.235Z,91.63
2022-10-11T12:03:16.489Z,88.96
2022-10-11T12:13:16.485Z,89.81
2022-10-11T12:23:19.811Z,89.87
2022-10-11T12:33:16.713Z,87.40
2022-10-11T12:43:16.868Z,87.27
2022-10-11T12:53:17.067Z,90.47
2022-10-11T13:03:17.541Z,90.41
2022-10-11T13:13:17.395Z,91.18
2022-10-11T13:23:17.666Z,93.71
2022-10-11T13:33:17.766Z,91.67
2022-10-11T13:43:18.039Z,92.63
2022-10-11T13:53:18.127Z,96.01
2022-10-11T14:03:18.289Z,98.08
2022-10-11T14:13:18.595Z,99.50
2022-10-11T14:23:18.843Z,99.99
2022-10-11T14:33:18.839Z,99.99
2022-10-11T14:43:19.095Z,99.99
2022-10-11T14:53:19.210Z,99.99
2022-10-11T15:03:19.355Z,99.99
2022-10-11T15:13:19.535Z,99.99
2022-10-11T15:23:19.687Z,99.99
2022-10-11T15:33:19.914Z,99.99
2022-10-11T15:43:24.528Z,99.99
2022-10-11T15:53:20.315Z,99.99
2022-10-11T16:03:20.490Z,99.99
2022-10-11T16:13:20.671Z,99.99
2022-10-11T16:23:20.831Z,99.99
2022-10-11T16:33:21.030Z,99.99
2022-10-11T16:43:21.164Z,99.99
2022-10-11T16:53:21.346Z,99.99
2022-10-11T17:03:21.509Z,99.99
2022-10-11T17:13:21.700Z,99.99
2022-10-11T17:23:21.874Z,99.99
2022-10-11T17:33:22.082Z,99.99
2022-10-11T17:43:22.232Z,99.99
2022-10-11T17:53:22.440Z,99.99
2022-10-11T18:03:22.591Z,99.99
2022-10-11T18:13:22.799Z,99.99
2022-10-11T18:23:22.959Z,99.99
2022-10-11T18:33:23.165Z,99.99
2022-10-11T18:43:23.299Z,99.99
2022-10-11T18:53:23.486Z,99.99
2022-10-11T19:03:23.741Z,99.99
2022-10-11T19:13:23.860Z,99.99
2022-10-11T19:23:24.032Z,99.99
2022-10-11T19:33:24.250Z,99.99
2022-10-11T19:43:24.415Z,99.99
2022-10-11T19:53:24.601Z,99.99
2022-10-11T20:03:24.733Z,99.99
2022-10-11T20:13:24.917Z,99.99
2022-10-11T20:23:27.570Z,99.99
2022-10-11T20:33:25.254Z,99.99
2022-10-11T20:43:25.391Z,99.99
2022-10-11T20:53:25.576Z,99.99
2022-10-11T21:03:25.719Z,99.99
2022-10-11T21:13:25.899Z,99.99
2022-10-11T21:23:26.047Z,99.99
2022-10-11T21:33:26.249Z,99.99
2022-10-11T21:43:26.403Z,99.99
2022-10-11T21:53:26.608Z,99.99
2022-10-11T22:03:26.745Z,99.99
2022-10-11T22:13:26.930Z,99.99
2022-10-11T22:23:27.113Z,99.99
2022-10-11T22:33:27.308Z,99.99
2022-10-11T22:43:27.448Z,99.99
2022-10-11T22:53:27.641Z,99.99
2022-10-11T23:03:27.892Z,99.99
2022-10-11T23:13:27.956Z,99.99
2022-10-11T23:23:28.127Z,99.99
2022-10-11T23:33:28.332Z,99.99
2022-10-11T23:43:28.486Z,99.99
2022-10-11T23:53:28.675Z,99.99
